sensor_id;sensor_type;location;lat;lon;timestamp;P1;durP1;ratioP1;P2;durP2;ratioP2
28988;SDS011;16089;59.952;10.818;2023-07-13T00:02:09;27.63;;;12.57;;
28988;SDS011;16089;59.952;10.818;2023-07-13T00:04:36;31.73;;;12.57;;
28988;SDS011;16089;59.952;10.818;2023-07-13T00:07:03;24.17;;;11.95;;
28988;SDS011;16089;59.952;10.818;2023-07-13T00:09:29;28.20;;;12.68;;
28988;SDS011;16089;59.952;10.818;2023-07-13T00:11:56;25.42;;;12.10;;
28988;SDS011;16089;59.952;10.818;2023-07-13T00:14:23;25.42;;;11.93;;
28988;SDS011;16089;59.952;10.818;2023-07-13T00:16:50;23.15;;;10.75;;
28988;SDS011;16089;59.952;10.818;2023-07-13T00:19:18;21.17;;;10.98;;
28988;SDS011;16089;59.952;10.818;2023-07-13T00:21:44;22.52;;;11.68;;
28988;SDS011;16089;59.952;10.818;2023-07-13T00:24:15;26.30;;;10.70;;
28988;SDS011;16089;59.952;10.818;2023-07-13T00:26:47;26.00;;;11.70;;
28988;SDS011;16089;59.952;10.818;2023-07-13T00:29:13;25.17;;;11.60;;
28988;SDS011;16089;59.952;10.818;2023-07-13T00:31:41;24.25;;;10.30;;
28988;SDS011;16089;59.952;10.818;2023-07-13T00:34:09;24.58;;;11.02;;
28988;SDS011;16089;59.952;10.818;2023-07-13T00:36:36;25.15;;;10.93;;
28988;SDS011;16089;59.952;10.818;2023-07-13T00:39:03;26.05;;;11.10;;
28988;SDS011;16089;59.952;10.818;2023-07-13T00:41:30;22.45;;;10.38;;
28988;SDS011;16089;59.952;10.818;2023-07-13T00:43:57;25.67;;;11.32;;
28988;SDS011;16089;59.952;10.818;2023-07-13T00:46:24;22.02;;;10.90;;
28988;SDS011;16089;59.952;10.818;2023-07-13T00:48:51;23.65;;;11.43;;
28988;SDS011;16089;59.952;10.818;2023-07-13T00:51:19;20.60;;;10.95;;
28988;SDS011;16089;59.952;10.818;2023-07-13T00:53:48;31.10;;;12.25;;
28988;SDS011;16089;59.952;10.818;2023-07-13T00:56:15;28.25;;;10.60;;
28988;SDS011;16089;59.952;10.818;2023-07-13T00:58:42;26.30;;;11.10;;
28988;SDS011;16089;59.952;10.818;2023-07-13T01:01:08;30.25;;;12.15;;
28988;SDS011;16089;59.952;10.818;2023-07-13T01:03:35;25.40;;;10.70;;
28988;SDS011;16089;59.952;10.818;2023-07-13T01:06:03;24.90;;;10.73;;
28988;SDS011;16089;59.952;10.818;2023-07-13T01:08:29;17.27;;;9.55;;
28988;SDS011;16089;59.952;10.818;2023-07-13T01:10:57;25.17;;;10.32;;
28988;SDS011;16089;59.952;10.818;2023-07-13T01:13:24;24.75;;;11.18;;
28988;SDS011;16089;59.952;10.818;2023-07-13T01:15:51;25.02;;;11.35;;
28988;SDS011;16089;59.952;10.818;2023-07-13T01:18:21;29.45;;;10.05;;
28988;SDS011;16089;59.952;10.818;2023-07-13T01:20:52;28.90;;;11.02;;
28988;SDS011;16089;59.952;10.818;2023-07-13T01:23:18;22.73;;;10.25;;
28988;SDS011;16089;59.952;10.818;2023-07-13T01:25:45;24.90;;;10.38;;
28988;SDS011;16089;59.952;10.818;2023-07-13T01:28:12;23.38;;;10.52;;
28988;SDS011;16089;59.952;10.818;2023-07-13T01:30:39;21.55;;;10.23;;
28988;SDS011;16089;59.952;10.818;2023-07-13T01:33:06;25.90;;;11.38;;
28988;SDS011;16089;59.952;10.818;2023-07-13T01:35:32;27.83;;;12.25;;
28988;SDS011;16089;59.952;10.818;2023-07-13T01:38:00;28.67;;;10.55;;
28988;SDS011;16089;59.952;10.818;2023-07-13T01:40:27;22.40;;;11.23;;
28988;SDS011;16089;59.952;10.818;2023-07-13T01:42:54;20.10;;;10.02;;
28988;SDS011;16089;59.952;10.818;2023-07-13T01:45:21;26.73;;;10.65;;
28988;SDS011;16089;59.952;10.818;2023-07-13T01:47:47;25.38;;;10.40;;
28988;SDS011;16089;59.952;10.818;2023-07-13T01:50:13;27.23;;;10.18;;
28988;SDS011;16089;59.952;10.818;2023-07-13T01:52:40;24.10;;;10.18;;
28988;SDS011;16089;59.952;10.818;2023-07-13T01:55:08;24.60;;;10.57;;
28988;SDS011;16089;59.952;10.818;2023-07-13T01:57:34;29.45;;;10.80;;
28988;SDS011;16089;59.952;10.818;2023-07-13T02:00:02;26.08;;;10.77;;
28988;SDS011;16089;59.952;10.818;2023-07-13T02:02:29;27.67;;;11.00;;
28988;SDS011;16089;59.952;10.818;2023-07-13T02:04:56;25.50;;;10.57;;
28988;SDS011;16089;59.952;10.818;2023-07-13T02:07:22;22.75;;;10.15;;
28988;SDS011;16089;59.952;10.818;2023-07-13T02:09:49;23.48;;;10.55;;
28988;SDS011;16089;59.952;10.818;2023-07-13T02:12:16;27.35;;;10.57;;
28988;SDS011;16089;59.952;10.818;2023-07-13T02:14:43;24.98;;;10.57;;
28988;SDS011;16089;59.952;10.818;2023-07-13T02:17:10;23.65;;;10.80;;
28988;SDS011;16089;59.952;10.818;2023-07-13T02:19:36;22.75;;;10.70;;
28988;SDS011;16089;59.952;10.818;2023-07-13T02:22:03;25.90;;;10.70;;
28988;SDS011;16089;59.952;10.818;2023-07-13T02:24:29;28.17;;;11.15;;
28988;SDS011;16089;59.952;10.818;2023-07-13T02:26:55;22.27;;;10.63;;
28988;SDS011;16089;59.952;10.818;2023-07-13T02:29:23;23.70;;;11.65;;
28988;SDS011;16089;59.952;10.818;2023-07-13T02:31:50;23.27;;;10.27;;
28988;SDS011;16089;59.952;10.818;2023-07-13T02:34:16;24.48;;;10.85;;
28988;SDS011;16089;59.952;10.818;2023-07-13T02:36:43;26.58;;;10.57;;
28988;SDS011;16089;59.952;10.818;2023-07-13T02:39:09;25.60;;;10.57;;
28988;SDS011;16089;59.952;10.818;2023-07-13T02:41:37;28.23;;;11.00;;
28988;SDS011;16089;59.952;10.818;2023-07-13T02:44:04;22.98;;;11.27;;
28988;SDS011;16089;59.952;10.818;2023-07-13T02:46:32;28.88;;;11.20;;
28988;SDS011;16089;59.952;10.818;2023-07-13T02:48:59;20.25;;;11.43;;
28988;SDS011;16089;59.952;10.818;2023-07-13T02:51:26;22.60;;;10.60;;
28988;SDS011;16089;59.952;10.818;2023-07-13T02:53:52;30.73;;;10.90;;
28988;SDS011;16089;59.952;10.818;2023-07-13T02:56:21;28.33;;;10.80;;
28988;SDS011;16089;59.952;10.818;2023-07-13T02:58:48;24.92;;;11.25;;
28988;SDS011;16089;59.952;10.818;2023-07-13T03:01:14;26.25;;;11.23;;
28988;SDS011;16089;59.952;10.818;2023-07-13T03:03:45;31.60;;;11.07;;
28988;SDS011;16089;59.952;10.818;2023-07-13T03:06:12;24.65;;;10.75;;
28988;SDS011;16089;59.952;10.818;2023-07-13T03:08:39;25.73;;;10.50;;
28988;SDS011;16089;59.952;10.818;2023-07-13T03:11:06;23.58;;;10.40;;
28988;SDS011;16089;59.952;10.818;2023-07-13T03:13:33;28.17;;;11.27;;
28988;SDS011;16089;59.952;10.818;2023-07-13T03:16:00;30.55;;;12.23;;
28988;SDS011;16089;59.952;10.818;2023-07-13T03:18:26;24.70;;;11.73;;
28988;SDS011;16089;59.952;10.818;2023-07-13T03:20:54;29.13;;;11.32;;
28988;SDS011;16089;59.952;10.818;2023-07-13T03:23:21;27.35;;;11.05;;
28988;SDS011;16089;59.952;10.818;2023-07-13T03:25:48;24.60;;;10.68;;
28988;SDS011;16089;59.952;10.818;2023-07-13T03:28:14;22.17;;;10.35;;
28988;SDS011;16089;59.952;10.818;2023-07-13T03:30:41;20.90;;;10.57;;
28988;SDS011;16089;59.952;10.818;2023-07-13T03:33:08;26.88;;;10.40;;
28988;SDS011;16089;59.952;10.818;2023-07-13T03:35:35;23.23;;;10.23;;
28988;SDS011;16089;59.952;10.818;2023-07-13T03:38:02;19.95;;;10.20;;
28988;SDS011;16089;59.952;10.818;2023-07-13T03:40:29;21.98;;;10.07;;
28988;SDS011;16089;59.952;10.818;2023-07-13T03:42:56;15.75;;;9.10;;
28988;SDS011;16089;59.952;10.818;2023-07-13T03:45:22;17.77;;;9.98;;
28988;SDS011;16089;59.952;10.818;2023-07-13T03:47:48;23.13;;;10.48;;
28988;SDS011;16089;59.952;10.818;2023-07-13T03:50:15;24.80;;;9.45;;
28988;SDS011;16089;59.952;10.818;2023-07-13T03:52:41;20.00;;;10.38;;
28988;SDS011;16089;59.952;10.818;2023-07-13T03:55:09;17.52;;;10.07;;
28988;SDS011;16089;59.952;10.818;2023-07-13T03:57:36;24.23;;;9.68;;
28988;SDS011;16089;59.952;10.818;2023-07-13T04:00:03;20.10;;;9.85;;
28988;SDS011;16089;59.952;10.818;2023-07-13T04:02:31;17.77;;;9.75;;
28988;SDS011;16089;59.952;10.818;2023-07-13T04:04:57;16.10;;;9.25;;
28988;SDS011;16089;59.952;10.818;2023-07-13T04:07:23;26.30;;;9.80;;
28988;SDS011;16089;59.952;10.818;2023-07-13T04:09:50;19.00;;;8.63;;
28988;SDS011;16089;59.952;10.818;2023-07-13T04:12:18;20.75;;;9.43;;
28988;SDS011;16089;59.952;10.818;2023-07-13T04:14:44;19.30;;;8.70;;
28988;SDS011;16089;59.952;10.818;2023-07-13T04:17:11;18.48;;;8.48;;
28988;SDS011;16089;59.952;10.818;2023-07-13T04:19:37;21.15;;;8.57;;
28988;SDS011;16089;59.952;10.818;2023-07-13T04:22:04;16.98;;;7.88;;
28988;SDS011;16089;59.952;10.818;2023-07-13T04:24:30;15.23;;;7.90;;
28988;SDS011;16089;59.952;10.818;2023-07-13T04:26:57;16.63;;;8.27;;
28988;SDS011;16089;59.952;10.818;2023-07-13T04:29:26;14.82;;;7.53;;
28988;SDS011;16089;59.952;10.818;2023-07-13T04:31:52;16.45;;;7.60;;
28988;SDS011;16089;59.952;10.818;2023-07-13T04:34:18;14.55;;;7.57;;
28988;SDS011;16089;59.952;10.818;2023-07-13T04:36:45;14.38;;;7.60;;
28988;SDS011;16089;59.952;10.818;2023-07-13T04:39:11;16.45;;;7.97;;
28988;SDS011;16089;59.952;10.818;2023-07-13T04:41:38;14.88;;;7.47;;
28988;SDS011;16089;59.952;10.818;2023-07-13T04:44:04;12.73;;;7.60;;
28988;SDS011;16089;59.952;10.818;2023-07-13T04:46:32;13.80;;;7.30;;
28988;SDS011;16089;59.952;10.818;2023-07-13T04:48:58;17.52;;;8.23;;
28988;SDS011;16089;59.952;10.818;2023-07-13T04:51:26;13.52;;;7.50;;
28988;SDS011;16089;59.952;10.818;2023-07-13T04:53:52;13.50;;;6.72;;
28988;SDS011;16089;59.952;10.818;2023-07-13T04:56:19;16.90;;;6.50;;
28988;SDS011;16089;59.952;10.818;2023-07-13T04:58:45;16.42;;;6.80;;
28988;SDS011;16089;59.952;10.818;2023-07-13T05:01:12;11.77;;;6.80;;
28988;SDS011;16089;59.952;10.818;2023-07-13T05:03:40;13.43;;;5.97;;
28988;SDS011;16089;59.952;10.818;2023-07-13T05:06:07;14.48;;;6.78;;
28988;SDS011;16089;59.952;10.818;2023-07-13T05:08:35;16.33;;;6.82;;
28988;SDS011;16089;59.952;10.818;2023-07-13T05:11:01;13.32;;;6.28;;
28988;SDS011;16089;59.952;10.818;2023-07-13T05:13:28;13.90;;;6.63;;
28988;SDS011;16089;59.952;10.818;2023-07-13T05:15:55;15.40;;;6.45;;
28988;SDS011;16089;59.952;10.818;2023-07-13T05:18:22;15.88;;;5.45;;
28988;SDS011;16089;59.952;10.818;2023-07-13T05:20:56;16.38;;;6.32;;
28988;SDS011;16089;59.952;10.818;2023-07-13T05:23:22;10.23;;;5.53;;
28988;SDS011;16089;59.952;10.818;2023-07-13T05:25:49;15.52;;;5.32;;
28988;SDS011;16089;59.952;10.818;2023-07-13T05:28:15;14.77;;;5.88;;
28988;SDS011;16089;59.952;10.818;2023-07-13T05:30:44;11.30;;;5.55;;
28988;SDS011;16089;59.952;10.818;2023-07-13T05:33:11;11.68;;;5.35;;
28988;SDS011;16089;59.952;10.818;2023-07-13T05:35:37;14.02;;;6.10;;
28988;SDS011;16089;59.952;10.818;2023-07-13T05:38:05;11.18;;;5.50;;
28988;SDS011;16089;59.952;10.818;2023-07-13T05:40:32;11.60;;;6.00;;
28988;SDS011;16089;59.952;10.818;2023-07-13T05:42:58;11.90;;;5.57;;
28988;SDS011;16089;59.952;10.818;2023-07-13T05:45:25;9.35;;;4.90;;
28988;SDS011;16089;59.952;10.818;2023-07-13T05:47:52;14.82;;;5.68;;
28988;SDS011;16089;59.952;10.818;2023-07-13T05:50:18;14.23;;;5.57;;
28988;SDS011;16089;59.952;10.818;2023-07-13T05:52:44;11.77;;;5.45;;
28988;SDS011;16089;59.952;10.818;2023-07-13T05:55:12;14.27;;;5.38;;
28988;SDS011;16089;59.952;10.818;2023-07-13T05:57:39;10.68;;;4.85;;
28988;SDS011;16089;59.952;10.818;2023-07-13T06:00:06;8.82;;;4.85;;
28988;SDS011;16089;59.952;10.818;2023-07-13T06:02:33;11.48;;;5.10;;
28988;SDS011;16089;59.952;10.818;2023-07-13T06:04:59;13.45;;;5.40;;
28988;SDS011;16089;59.952;10.818;2023-07-13T06:07:25;8.50;;;4.55;;
28988;SDS011;16089;59.952;10.818;2023-07-13T06:09:52;9.45;;;4.43;;
28988;SDS011;16089;59.952;10.818;2023-07-13T06:12:20;13.90;;;5.20;;
28988;SDS011;16089;59.952;10.818;2023-07-13T06:14:47;14.10;;;4.38;;
28988;SDS011;16089;59.952;10.818;2023-07-13T06:17:17;11.85;;;4.60;;
28988;SDS011;16089;59.952;10.818;2023-07-13T06:19:43;15.80;;;4.40;;
28988;SDS011;16089;59.952;10.818;2023-07-13T06:22:10;13.55;;;5.00;;
28988;SDS011;16089;59.952;10.818;2023-07-13T06:24:36;9.95;;;4.30;;
28988;SDS011;16089;59.952;10.818;2023-07-13T06:27:03;10.10;;;4.30;;
28988;SDS011;16089;59.952;10.818;2023-07-13T06:29:31;9.15;;;4.38;;
28988;SDS011;16089;59.952;10.818;2023-07-13T06:31:57;10.32;;;4.00;;
28988;SDS011;16089;59.952;10.818;2023-07-13T06:34:24;9.98;;;4.10;;
28988;SDS011;16089;59.952;10.818;2023-07-13T06:36:51;7.50;;;3.67;;
28988;SDS011;16089;59.952;10.818;2023-07-13T06:39:17;8.02;;;3.58;;
28988;SDS011;16089;59.952;10.818;2023-07-13T06:41:43;10.00;;;3.63;;
28988;SDS011;16089;59.952;10.818;2023-07-13T06:44:10;8.02;;;3.30;;
28988;SDS011;16089;59.952;10.818;2023-07-13T06:46:40;7.35;;;3.40;;
28988;SDS011;16089;59.952;10.818;2023-07-13T06:49:08;8.45;;;2.97;;
28988;SDS011;16089;59.952;10.818;2023-07-13T06:51:34;7.53;;;3.03;;
28988;SDS011;16089;59.952;10.818;2023-07-13T06:54:00;8.98;;;3.00;;
28988;SDS011;16089;59.952;10.818;2023-07-13T06:56:30;8.02;;;2.95;;
28988;SDS011;16089;59.952;10.818;2023-07-13T06:58:56;6.38;;;3.38;;
28988;SDS011;16089;59.952;10.818;2023-07-13T07:01:23;6.18;;;2.58;;
28988;SDS011;16089;59.952;10.818;2023-07-13T07:03:50;4.28;;;2.25;;
28988;SDS011;16089;59.952;10.818;2023-07-13T07:06:18;6.57;;;2.70;;
28988;SDS011;16089;59.952;10.818;2023-07-13T07:08:45;5.07;;;2.65;;
28988;SDS011;16089;59.952;10.818;2023-07-13T07:11:12;6.75;;;2.65;;
28988;SDS011;16089;59.952;10.818;2023-07-13T07:13:39;8.50;;;2.80;;
28988;SDS011;16089;59.952;10.818;2023-07-13T07:16:05;5.90;;;2.70;;
28988;SDS011;16089;59.952;10.818;2023-07-13T07:18:32;5.88;;;2.60;;
28988;SDS011;16089;59.952;10.818;2023-07-13T07:20:59;8.55;;;2.67;;
28988;SDS011;16089;59.952;10.818;2023-07-13T07:23:26;5.20;;;2.55;;
28988;SDS011;16089;59.952;10.818;2023-07-13T07:25:53;5.15;;;2.22;;
28988;SDS011;16089;59.952;10.818;2023-07-13T07:28:19;4.82;;;2.22;;
28988;SDS011;16089;59.952;10.818;2023-07-13T07:30:46;6.20;;;2.60;;
28988;SDS011;16089;59.952;10.818;2023-07-13T07:33:13;4.70;;;2.20;;
28988;SDS011;16089;59.952;10.818;2023-07-13T07:35:39;7.35;;;2.40;;
28988;SDS011;16089;59.952;10.818;2023-07-13T07:38:07;5.35;;;1.85;;
28988;SDS011;16089;59.952;10.818;2023-07-13T07:40:36;6.65;;;2.20;;
28988;SDS011;16089;59.952;10.818;2023-07-13T07:43:02;5.75;;;2.25;;
28988;SDS011;16089;59.952;10.818;2023-07-13T07:45:29;6.55;;;2.78;;
28988;SDS011;16089;59.952;10.818;2023-07-13T07:47:55;6.90;;;2.42;;
28988;SDS011;16089;59.952;10.818;2023-07-13T07:50:23;7.95;;;2.00;;
28988;SDS011;16089;59.952;10.818;2023-07-13T07:52:50;3.75;;;1.98;;
28988;SDS011;16089;59.952;10.818;2023-07-13T07:55:18;7.20;;;2.47;;
28988;SDS011;16089;59.952;10.818;2023-07-13T07:57:44;9.20;;;2.50;;
28988;SDS011;16089;59.952;10.818;2023-07-13T08:00:11;8.55;;;2.17;;
28988;SDS011;16089;59.952;10.818;2023-07-13T08:02:38;9.57;;;2.20;;
28988;SDS011;16089;59.952;10.818;2023-07-13T08:05:06;4.53;;;1.80;;
28988;SDS011;16089;59.952;10.818;2023-07-13T08:07:34;3.92;;;1.73;;
28988;SDS011;16089;59.952;10.818;2023-07-13T08:10:01;5.30;;;1.77;;
28988;SDS011;16089;59.952;10.818;2023-07-13T08:12:29;3.78;;;1.90;;
28988;SDS011;16089;59.952;10.818;2023-07-13T08:14:55;3.72;;;1.60;;
28988;SDS011;16089;59.952;10.818;2023-07-13T08:17:23;7.50;;;1.65;;
28988;SDS011;16089;59.952;10.818;2023-07-13T08:19:49;3.95;;;1.35;;
28988;SDS011;16089;59.952;10.818;2023-07-13T08:22:16;8.50;;;1.63;;
28988;SDS011;16089;59.952;10.818;2023-07-13T08:24:42;3.53;;;1.70;;
28988;SDS011;16089;59.952;10.818;2023-07-13T08:27:09;4.28;;;1.65;;
28988;SDS011;16089;59.952;10.818;2023-07-13T08:29:37;3.10;;;1.50;;
28988;SDS011;16089;59.952;10.818;2023-07-13T08:32:04;2.95;;;1.58;;
28988;SDS011;16089;59.952;10.818;2023-07-13T08:34:31;4.75;;;1.50;;
28988;SDS011;16089;59.952;10.818;2023-07-13T08:36:57;4.50;;;1.25;;
28988;SDS011;16089;59.952;10.818;2023-07-13T08:39:24;2.65;;;1.27;;
28988;SDS011;16089;59.952;10.818;2023-07-13T08:41:52;4.35;;;1.13;;
28988;SDS011;16089;59.952;10.818;2023-07-13T08:44:23;8.82;;;1.63;;
28988;SDS011;16089;59.952;10.818;2023-07-13T08:46:55;5.95;;;1.73;;
28988;SDS011;16089;59.952;10.818;2023-07-13T08:49:22;8.00;;;1.52;;
28988;SDS011;16089;59.952;10.818;2023-07-13T08:51:49;4.05;;;1.35;;
28988;SDS011;16089;59.952;10.818;2023-07-13T08:54:19;4.93;;;1.48;;
28988;SDS011;16089;59.952;10.818;2023-07-13T08:56:46;5.22;;;1.50;;
28988;SDS011;16089;59.952;10.818;2023-07-13T08:59:15;3.63;;;1.55;;
28988;SDS011;16089;59.952;10.818;2023-07-13T09:02:01;4.47;;;1.55;;
28988;SDS011;16089;59.952;10.818;2023-07-13T09:04:35;4.68;;;1.30;;
28988;SDS011;16089;59.952;10.818;2023-07-13T09:07:05;4.97;;;1.33;;
28988;SDS011;16089;59.952;10.818;2023-07-13T09:09:39;5.55;;;1.50;;
28988;SDS011;16089;59.952;10.818;2023-07-13T09:12:09;4.60;;;1.50;;
28988;SDS011;16089;59.952;10.818;2023-07-13T09:14:40;4.82;;;1.30;;
28988;SDS011;16089;59.952;10.818;2023-07-13T09:17:10;3.42;;;1.20;;
28988;SDS011;16089;59.952;10.818;2023-07-13T09:19:40;5.05;;;1.30;;
28988;SDS011;16089;59.952;10.818;2023-07-13T09:22:11;9.98;;;1.65;;
28988;SDS011;16089;59.952;10.818;2023-07-13T09:24:41;3.97;;;1.15;;
28988;SDS011;16089;59.952;10.818;2023-07-13T09:27:17;3.78;;;1.30;;
28988;SDS011;16089;59.952;10.818;2023-07-13T09:29:45;4.00;;;1.10;;
28988;SDS011;16089;59.952;10.818;2023-07-13T09:32:13;6.40;;;1.50;;
28988;SDS011;16089;59.952;10.818;2023-07-13T09:34:42;3.17;;;1.30;;
28988;SDS011;16089;59.952;10.818;2023-07-13T09:37:08;3.65;;;1.20;;
28988;SDS011;16089;59.952;10.818;2023-07-13T09:39:35;5.72;;;1.30;;
28988;SDS011;16089;59.952;10.818;2023-07-13T09:42:04;3.60;;;1.00;;
28988;SDS011;16089;59.952;10.818;2023-07-13T09:44:34;3.90;;;1.10;;
28988;SDS011;16089;59.952;10.818;2023-07-13T09:47:01;4.15;;;1.02;;
28988;SDS011;16089;59.952;10.818;2023-07-13T09:49:28;4.72;;;1.15;;
28988;SDS011;16089;59.952;10.818;2023-07-13T09:52:00;4.57;;;1.13;;
28988;SDS011;16089;59.952;10.818;2023-07-13T09:54:28;3.88;;;1.20;;
28988;SDS011;16089;59.952;10.818;2023-07-13T09:56:55;4.85;;;1.10;;
28988;SDS011;16089;59.952;10.818;2023-07-13T09:59:23;2.53;;;1.15;;
28988;SDS011;16089;59.952;10.818;2023-07-13T10:01:50;5.68;;;1.15;;
28988;SDS011;16089;59.952;10.818;2023-07-13T10:04:18;4.38;;;0.90;;
28988;SDS011;16089;59.952;10.818;2023-07-13T10:06:44;2.85;;;0.93;;
28988;SDS011;16089;59.952;10.818;2023-07-13T10:09:15;3.67;;;1.20;;
28988;SDS011;16089;59.952;10.818;2023-07-13T10:11:41;2.45;;;1.00;;
28988;SDS011;16089;59.952;10.818;2023-07-13T10:14:10;3.60;;;0.98;;
28988;SDS011;16089;59.952;10.818;2023-07-13T10:16:36;3.15;;;0.88;;
28988;SDS011;16089;59.952;10.818;2023-07-13T10:19:05;3.75;;;0.80;;
28988;SDS011;16089;59.952;10.818;2023-07-13T10:21:33;4.50;;;1.20;;
28988;SDS011;16089;59.952;10.818;2023-07-13T10:24:03;3.13;;;0.88;;
28988;SDS011;16089;59.952;10.818;2023-07-13T10:26:33;2.47;;;0.80;;
28988;SDS011;16089;59.952;10.818;2023-07-13T10:29:01;4.55;;;0.80;;
28988;SDS011;16089;59.952;10.818;2023-07-13T10:31:29;1.77;;;0.73;;
28988;SDS011;16089;59.952;10.818;2023-07-13T10:33:56;4.40;;;1.15;;
28988;SDS011;16089;59.952;10.818;2023-07-13T10:36:27;4.28;;;1.05;;
28988;SDS011;16089;59.952;10.818;2023-07-13T10:38:54;5.57;;;1.17;;
28988;SDS011;16089;59.952;10.818;2023-07-13T10:41:21;5.00;;;0.90;;
28988;SDS011;16089;59.952;10.818;2023-07-13T10:43:51;3.25;;;0.90;;
28988;SDS011;16089;59.952;10.818;2023-07-13T10:46:19;5.82;;;1.20;;
28988;SDS011;16089;59.952;10.818;2023-07-13T10:48:48;4.57;;;0.80;;
28988;SDS011;16089;59.952;10.818;2023-07-13T10:51:16;2.75;;;0.88;;
28988;SDS011;16089;59.952;10.818;2023-07-13T10:53:45;4.47;;;0.90;;
28988;SDS011;16089;59.952;10.818;2023-07-13T10:56:19;5.50;;;0.90;;
28988;SDS011;16089;59.952;10.818;2023-07-13T10:58:46;6.38;;;0.77;;
28988;SDS011;16089;59.952;10.818;2023-07-13T11:01:15;4.60;;;0.88;;
28988;SDS011;16089;59.952;10.818;2023-07-13T11:03:54;4.50;;;1.05;;
28988;SDS011;16089;59.952;10.818;2023-07-13T11:06:30;3.90;;;0.90;;
28988;SDS011;16089;59.952;10.818;2023-07-13T11:08:59;3.15;;;0.88;;
28988;SDS011;16089;59.952;10.818;2023-07-13T11:11:43;6.13;;;1.00;;
28988;SDS011;16089;59.952;10.818;2023-07-13T11:14:26;1.95;;;0.80;;
28988;SDS011;16089;59.952;10.818;2023-07-13T11:16:54;4.63;;;0.95;;
28988;SDS011;16089;59.952;10.818;2023-07-13T11:19:27;3.72;;;0.90;;
28988;SDS011;16089;59.952;10.818;2023-07-13T11:22:03;3.65;;;0.93;;
28988;SDS011;16089;59.952;10.818;2023-07-13T11:24:30;5.00;;;0.88;;
28988;SDS011;16089;59.952;10.818;2023-07-13T11:27:21;2.90;;;0.82;;
28988;SDS011;16089;59.952;10.818;2023-07-13T11:29:48;4.85;;;0.93;;
28988;SDS011;16089;59.952;10.818;2023-07-13T11:32:23;6.68;;;0.88;;
28988;SDS011;16089;59.952;10.818;2023-07-13T11:34:51;4.13;;;0.80;;
28988;SDS011;16089;59.952;10.818;2023-07-13T11:37:19;3.65;;;0.70;;
28988;SDS011;16089;59.952;10.818;2023-07-13T11:39:46;3.67;;;0.80;;
28988;SDS011;16089;59.952;10.818;2023-07-13T11:42:13;3.78;;;1.00;;
28988;SDS011;16089;59.952;10.818;2023-07-13T11:44:42;2.88;;;0.88;;
28988;SDS011;16089;59.952;10.818;2023-07-13T11:47:09;3.75;;;0.82;;
28988;SDS011;16089;59.952;10.818;2023-07-13T11:49:40;5.82;;;0.77;;
28988;SDS011;16089;59.952;10.818;2023-07-13T11:52:10;4.72;;;0.90;;
28988;SDS011;16089;59.952;10.818;2023-07-13T11:54:43;4.60;;;1.00;;
28988;SDS011;16089;59.952;10.818;2023-07-13T11:57:15;4.97;;;1.00;;
28988;SDS011;16089;59.952;10.818;2023-07-13T11:59:44;1.80;;;0.98;;
28988;SDS011;16089;59.952;10.818;2023-07-13T12:02:13;5.75;;;0.90;;
28988;SDS011;16089;59.952;10.818;2023-07-13T12:04:42;4.28;;;0.80;;
28988;SDS011;16089;59.952;10.818;2023-07-13T12:07:14;3.90;;;0.90;;
28988;SDS011;16089;59.952;10.818;2023-07-13T12:09:41;2.00;;;0.80;;
28988;SDS011;16089;59.952;10.818;2023-07-13T12:12:12;4.15;;;0.95;;
28988;SDS011;16089;59.952;10.818;2023-07-13T12:14:39;3.15;;;0.80;;
28988;SDS011;16089;59.952;10.818;2023-07-13T12:17:15;3.20;;;1.00;;
28988;SDS011;16089;59.952;10.818;2023-07-13T12:19:44;4.63;;;0.98;;
28988;SDS011;16089;59.952;10.818;2023-07-13T12:22:11;3.30;;;1.05;;
28988;SDS011;16089;59.952;10.818;2023-07-13T12:24:38;3.58;;;1.00;;
28988;SDS011;16089;59.952;10.818;2023-07-13T12:27:06;2.67;;;0.70;;
28988;SDS011;16089;59.952;10.818;2023-07-13T12:29:33;6.50;;;1.00;;
28988;SDS011;16089;59.952;10.818;2023-07-13T12:31:59;3.53;;;1.13;;
28988;SDS011;16089;59.952;10.818;2023-07-13T12:34:26;3.67;;;0.90;;
28988;SDS011;16089;59.952;10.818;2023-07-13T12:36:54;3.95;;;0.85;;
28988;SDS011;16089;59.952;10.818;2023-07-13T12:39:22;2.70;;;0.77;;
28988;SDS011;16089;59.952;10.818;2023-07-13T12:41:49;5.25;;;0.90;;
28988;SDS011;16089;59.952;10.818;2023-07-13T12:44:17;2.95;;;1.17;;
28988;SDS011;16089;59.952;10.818;2023-07-13T12:46:52;7.80;;;1.20;;
28988;SDS011;16089;59.952;10.818;2023-07-13T12:49:22;4.80;;;1.13;;
28988;SDS011;16089;59.952;10.818;2023-07-13T12:51:49;5.90;;;0.93;;
28988;SDS011;16089;59.952;10.818;2023-07-13T12:54:18;3.83;;;1.02;;
28988;SDS011;16089;59.952;10.818;2023-07-13T12:56:44;5.65;;;0.88;;
28988;SDS011;16089;59.952;10.818;2023-07-13T12:59:17;2.38;;;0.77;;
28988;SDS011;16089;59.952;10.818;2023-07-13T13:01:44;3.28;;;0.77;;
28988;SDS011;16089;59.952;10.818;2023-07-13T13:04:12;4.00;;;1.17;;
28988;SDS011;16089;59.952;10.818;2023-07-13T13:06:38;3.88;;;1.00;;
28988;SDS011;16089;59.952;10.818;2023-07-13T13:09:09;3.80;;;0.90;;
28988;SDS011;16089;59.952;10.818;2023-07-13T13:11:39;5.35;;;1.30;;
28988;SDS011;16089;59.952;10.818;2023-07-13T13:14:06;4.28;;;1.15;;
28988;SDS011;16089;59.952;10.818;2023-07-13T13:16:34;4.20;;;1.10;;
28988;SDS011;16089;59.952;10.818;2023-07-13T13:19:05;4.60;;;1.00;;
28988;SDS011;16089;59.952;10.818;2023-07-13T13:21:36;9.75;;;1.33;;
28988;SDS011;16089;59.952;10.818;2023-07-13T13:24:04;7.13;;;1.30;;
28988;SDS011;16089;59.952;10.818;2023-07-13T13:26:31;3.15;;;1.30;;
28988;SDS011;16089;59.952;10.818;2023-07-13T13:28:59;4.90;;;1.00;;
28988;SDS011;16089;59.952;10.818;2023-07-13T13:31:25;6.60;;;1.33;;
28988;SDS011;16089;59.952;10.818;2023-07-13T13:33:52;6.45;;;1.23;;
28988;SDS011;16089;59.952;10.818;2023-07-13T13:36:19;4.70;;;1.25;;
28988;SDS011;16089;59.952;10.818;2023-07-13T13:38:47;4.30;;;1.30;;
28988;SDS011;16089;59.952;10.818;2023-07-13T13:41:13;6.45;;;1.35;;
28988;SDS011;16089;59.952;10.818;2023-07-13T13:43:40;5.15;;;1.48;;
28988;SDS011;16089;59.952;10.818;2023-07-13T13:46:16;3.80;;;1.27;;
28988;SDS011;16089;59.952;10.818;2023-07-13T13:48:43;5.90;;;1.30;;
28988;SDS011;16089;59.952;10.818;2023-07-13T13:51:13;5.28;;;1.20;;
28988;SDS011;16089;59.952;10.818;2023-07-13T13:53:39;5.13;;;1.30;;
28988;SDS011;16089;59.952;10.818;2023-07-13T13:56:06;6.30;;;1.48;;
28988;SDS011;16089;59.952;10.818;2023-07-13T13:58:33;6.75;;;1.48;;
28988;SDS011;16089;59.952;10.818;2023-07-13T14:00:59;4.70;;;1.00;;
28988;SDS011;16089;59.952;10.818;2023-07-13T14:03:27;4.10;;;1.20;;
28988;SDS011;16089;59.952;10.818;2023-07-13T14:05:54;4.28;;;1.05;;
28988;SDS011;16089;59.952;10.818;2023-07-13T14:08:22;4.03;;;0.88;;
28988;SDS011;16089;59.952;10.818;2023-07-13T14:10:48;2.88;;;0.77;;
28988;SDS011;16089;59.952;10.818;2023-07-13T14:13:16;4.53;;;0.63;;
28988;SDS011;16089;59.952;10.818;2023-07-13T14:15:44;6.80;;;1.48;;
28988;SDS011;16089;59.952;10.818;2023-07-13T14:18:10;10.00;;;1.85;;
28988;SDS011;16089;59.952;10.818;2023-07-13T14:20:38;7.15;;;1.50;;
28988;SDS011;16089;59.952;10.818;2023-07-13T14:23:05;4.22;;;1.40;;
28988;SDS011;16089;59.952;10.818;2023-07-13T14:25:32;5.00;;;1.30;;
28988;SDS011;16089;59.952;10.818;2023-07-13T14:27:58;6.25;;;1.25;;
28988;SDS011;16089;59.952;10.818;2023-07-13T14:30:29;6.25;;;1.48;;